Rhododendron Park, Washington
Current Conditions -  °F | °C
As of 5:35 PM on Monday 24 Nov 2014 (Local Time) from KTCM Reporting Station
Light Rain Light Rain  
Wind Chill: 42°   Ceiling: 4800
Heat Index: 46°   Visibility: 7mi
Dew Point: 46°   Wind: 8mph
Humidity: 100%   Direction: 150°SSE
Pressure: 30.15"   Gusts: NA
Location:  47.1874°N, 122.164°W
Report Text: KTCM 250135Z AUTO 15007KT 7SM -RA FEW039 BKN048 08/08 A3015 RMK AO2 $
Loading
Personal Weather Stations






























Interactive Weather Map New forecast layout! Learn more

10-Day Weather Forecast

Advertisements
Track Severe Weather on mobile